Time;durP1;ratioP1;P1;durP2;ratioP2;P2;SDS_P1;SDS_P2;PMS_P1;PMS_P2;Temp;Humidity;BMP_temperature;BMP_pressure;BME280_temperature;BME280_humidity;BME280_pressure;Samples;Min_cycle;Max_cycle;Signal;HPM_P1;HPM_P2
2021/06/05 00:05:48;;;;;;;16.50;13.68;;;19.50;99.90;;;;;;5010793;28;20034;-91
2021/06/05 00:08:50;;;;;;;15.75;13.77;;;19.50;99.90;;;;;;5014238;28;20122;-92
2021/06/05 00:12:17;;;;;;;;;;;;;;;;;;;;;
2021/06/05 00:18:37;;;;;;;13.77;12.32;;;19.60;99.90;;;;;;4997093;28;20081;-89
2021/06/05 00:31:39;;;;;;;;;;;;;;;;;;;;;
2021/06/05 00:34:03;;;;;;;18.83;16.10;;;19.60;99.90;;;;;;5016070;28;20091;-89
2021/06/05 00:36:29;;;;;;;21.20;18.00;;;19.60;99.90;;;;;;5039828;28;20021;-91
2021/06/05 00:38:55;;;;;;;19.92;17.80;;;19.50;99.90;;;;;;5019855;28;20469;-90
2021/06/05 00:41:27;;;;;;;20.35;17.13;;;19.50;99.90;;;;;;5040600;28;20450;-90
2021/06/05 00:44:02;;;;;;;17.38;15.23;;;19.50;99.90;;;;;;5021745;28;20014;-89
2021/06/05 00:46:30;;;;;;;18.33;16.23;;;19.50;99.90;;;;;;5017695;28;20018;-90
2021/06/05 00:49:19;;;;;;;19.35;16.90;;;19.50;99.90;;;;;;5039744;28;20488;-90
2021/06/05 00:55:19;;;;;;;19.75;17.65;;;19.40;99.90;;;;;;5024751;28;20120;-90
2021/06/05 00:58:22;;;;;;;;;;;;;;;;;;;;;
2021/06/05 01:01:32;;;;;;;;;;;;;;;;;;;;;
2021/06/05 01:04:03;;;;;;;27.02;24.13;;;19.30;99.90;;;;;;5040199;28;20093;-90
2021/06/05 01:06:44;;;;;;;26.95;24.00;;;19.20;99.90;;;;;;5028296;28;20021;-91
2021/06/05 01:09:35;;;;;;;24.60;22.00;;;19.20;99.90;;;;;;5039496;28;20027;-90
2021/06/05 01:12:24;;;;;;;27.52;24.38;;;19.10;99.90;;;;;;5022803;28;20017;-91
2021/06/05 01:15:08;;;;;;;26.90;24.10;;;19.10;99.90;;;;;;5022926;28;20424;-91
2021/06/05 01:18:01;;;;;;;26.58;23.45;;;19.10;99.90;;;;;;5021565;28;20025;-91
2021/06/05 01:20:58;;;;;;;24.55;21.92;;;19.10;99.90;;;;;;5031046;28;20034;-91
2021/06/05 01:23:45;;;;;;;22.65;20.30;;;19.10;99.90;;;;;;5020816;28;20031;-91
2021/06/05 01:26:21;;;;;;;23.73;20.42;;;19.10;99.90;;;;;;5020575;28;20473;-91
2021/06/05 01:29:07;;;;;;;23.00;20.02;;;19.10;99.90;;;;;;5035528;28;20044;-91
2021/06/05 01:31:50;;;;;;;;;;;;;;;;;;;;;
2021/06/05 01:34:56;;;;;;;25.80;23.00;;;19.00;99.90;;;;;;5034543;28;20048;-91
2021/06/05 01:37:37;;;;;;;25.42;22.80;;;18.90;99.90;;;;;;4993371;28;20026;-91
2021/06/05 01:40:11;;;;;;;26.90;23.02;;;18.90;99.90;;;;;;5018316;28;20385;-90
2021/06/05 01:43:01;;;;;;;28.08;23.52;;;18.80;99.90;;;;;;4999664;28;20034;-91
2021/06/05 01:53:26;;;;;;;28.55;25.52;;;18.70;99.90;;;;;;5005674;28;19916;-92
2021/06/05 01:56:29;;;;;;;29.70;26.05;;;18.80;99.90;;;;;;5019606;28;20544;-91
2021/06/05 01:59:46;;;;;;;37.17;33.15;;;18.80;99.90;;;;;;5036728;28;20021;-92
2021/06/05 02:02:41;;;;;;;35.33;31.65;;;18.80;99.90;;;;;;5034704;28;20112;-91
2021/06/05 02:08:45;;;;;;;36.38;32.47;;;18.70;99.90;;;;;;5036353;28;20543;-92
2021/06/05 02:14:49;;;;;;;50.88;43.65;;;18.70;99.90;;;;;;5025672;28;20070;-91
2021/06/05 02:18:18;;;;;;;;;;;;;;;;;;;;;
2021/06/05 02:25:13;;;;;;;44.85;38.50;;;18.40;99.90;;;;;;4950907;28;20031;-92
2021/06/05 02:28:52;;;;;;;;;;;;;;;;;;;;;
2021/06/05 02:32:09;;;;;;;;;;;;;;;;;;;;;
2021/06/05 02:41:59;;;;;;;48.83;39.47;;;18.10;99.90;;;;;;5041620;28;20027;-90
2021/06/05 02:51:44;;;;;;;49.63;39.67;;;18.00;99.90;;;;;;5055952;28;20079;-92
2021/06/05 02:58:11;;;;;;;;;;;;;;;;;;;;;
2021/06/05 03:01:33;;;;;;;;;;;;;;;;;;;;;
2021/06/05 03:04:33;;;;;;;;;;;;;;;;;;;;;
2021/06/05 03:11:20;;;;;;;55.40;41.85;;;17.60;99.90;;;;;;5036387;28;20037;-92
2021/06/05 03:14:52;;;;;;;;;;;;;;;;;;;;;
2021/06/05 03:18:00;;;;;;;55.15;40.63;;;17.50;99.90;;;;;;5024778;28;20043;-91
2021/06/05 03:21:30;;;;;;;55.92;41.28;;;17.50;99.90;;;;;;5004592;28;20033;-91
2021/06/05 03:28:58;;;;;;;;;;;;;;;;;;;;;
2021/06/05 03:35:01;;;;;;;;;;;;;;;;;;;;;
2021/06/05 03:49:17;;;;;;;;;;;;;;;;;;;;;
2021/06/05 03:55:16;;;;;;;55.65;38.85;;;17.50;99.90;;;;;;4769023;30;20114;-90
2021/06/05 04:26:05;;;;;;;;;;;;;;;;;;;;;
2021/06/05 04:29:34;;;;;;;;;;;;;;;;;;;;;
2021/06/05 04:32:52;;;;;;;63.40;40.42;;;17.50;99.90;;;;;;4975126;28;20034;-90
2021/06/05 04:39:17;;;;;;;;;;;;;;;;;;;;;
2021/06/05 04:42:28;;;;;;;;;;;;;;;;;;;;;
2021/06/05 04:45:31;;;;;;;56.63;36.72;;;17.60;99.90;;;;;;4859351;29;20039;-90
2021/06/05 04:48:50;;;;;;;64.70;40.37;;;17.60;99.90;;;;;;4962818;28;20069;-90
2021/06/05 04:51:59;;;;;;;;;;;;;;;;;;;;;
2021/06/05 04:55:09;;;;;;;72.30;44.20;;;17.60;99.90;;;;;;4992652;28;20041;-91
2021/06/05 04:58:30;;;;;;;;;;;;;;;;;;;;;
2021/06/05 05:05:23;;;;;;;62.92;40.17;;;17.70;99.90;;;;;;4912364;29;20028;-90
2021/06/05 05:12:05;;;;;;;56.92;37.42;;;17.70;99.90;;;;;;4924424;29;20047;-90
2021/06/05 05:24:09;;;;;;;51.75;33.67;;;17.70;99.90;;;;;;5023012;28;20045;-90
2021/06/05 05:33:40;;;;;;;;;;;;;;;;;;;;;
2021/06/05 05:36:41;;;;;;;54.63;34.15;;;17.70;99.90;;;;;;4963140;29;20041;-91
2021/06/05 05:39:41;;;;;;;52.30;32.15;;;17.70;99.90;;;;;;4926737;29;20031;-89
2021/06/05 05:46:28;;;;;;;55.83;34.42;;;17.80;99.90;;;;;;4968165;28;20410;-90
2021/06/05 05:56:43;;;;;;;;;;;;;;;;;;;;;
2021/06/05 05:59:12;;;;;;;39.65;26.75;;;18.00;99.90;;;;;;5045131;28;20025;-90
2021/06/05 06:02:04;;;;;;;41.22;27.85;;;18.10;99.90;;;;;;5039881;28;20029;-90
2021/06/05 06:05:06;;;;;;;40.88;26.33;;;18.20;99.90;;;;;;5018429;28;20029;-91
2021/06/05 06:08:02;;;;;;;36.25;25.50;;;18.30;99.90;;;;;;5018318;28;20056;-90
2021/06/05 06:10:56;;;;;;;41.25;25.70;;;18.40;99.90;;;;;;5018562;28;20137;-89
2021/06/05 06:13:56;;;;;;;37.72;25.52;;;18.40;99.90;;;;;;5026577;28;20048;-89
2021/06/05 06:16:57;;;;;;;;;;;;;;;;;;;;;
2021/06/05 06:19:39;;;;;;;;;;;;;;;;;;;;;
2021/06/05 06:22:56;;;;;;;39.25;26.52;;;18.60;99.90;;;;;;5036129;28;20029;-90
2021/06/05 06:25:52;;;;;;;39.08;26.08;;;18.60;99.90;;;;;;4990902;28;20026;-90
2021/06/05 06:28:44;;;;;;;34.88;24.20;;;18.70;99.90;;;;;;5013252;28;20029;-90
2021/06/05 06:34:54;;;;;;;32.97;22.27;;;18.70;99.90;;;;;;5004776;28;20029;-89
2021/06/05 06:37:37;;;;;;;30.80;21.33;;;18.70;99.90;;;;;;4999085;28;20028;-91
2021/06/05 06:40:25;;;;;;;;;;;;;;;;;;;;;
2021/06/05 06:43:20;;;;;;;31.95;21.50;;;18.60;99.90;;;;;;5019308;28;20047;-90
2021/06/05 06:46:22;;;;;;;;;;;;;;;;;;;;;
2021/06/05 06:48:58;;;;;;;30.08;20.42;;;18.60;99.90;;;;;;5030145;28;20045;-90
2021/06/05 06:51:34;;;;;;;32.97;22.48;;;18.60;99.90;;;;;;5032740;28;20049;-88
2021/06/05 06:54:02;;;;;;;31.42;21.17;;;18.60;99.90;;;;;;5017664;28;20057;-89
2021/06/05 06:56:28;;;;;;;28.30;19.98;;;18.50;99.90;;;;;;5034946;28;20028;-88
2021/06/05 06:58:57;;;;;;;23.35;17.42;;;18.60;99.90;;;;;;5017360;28;20472;-89
2021/06/05 07:01:25;;;;;;;25.55;18.38;;;18.60;99.90;;;;;;5016930;28;20034;-89
2021/06/05 07:03:55;;;;;;;23.50;17.92;;;18.70;99.90;;;;;;5016748;28;20033;-89
2021/06/05 07:06:25;;;;;;;22.50;16.25;;;18.70;99.90;;;;;;5017210;28;20033;-90
2021/06/05 07:08:55;;;;;;;21.08;14.75;;;18.70;99.90;;;;;;5018827;28;20025;-90
2021/06/05 07:11:35;;;;;;;21.80;14.70;;;18.80;99.90;;;;;;5016704;28;20043;-89
2021/06/05 07:14:06;;;;;;;18.58;13.82;;;18.80;99.90;;;;;;5036492;28;20040;-89
2021/06/05 07:16:41;;;;;;;18.48;13.73;;;18.90;99.90;;;;;;5050288;28;20036;-89
2021/06/05 07:19:10;;;;;;;18.05;13.68;;;19.00;99.90;;;;;;5014537;28;20038;-90
2021/06/05 07:21:41;;;;;;;19.10;14.20;;;19.10;99.90;;;;;;5051586;28;20036;-89
2021/06/05 07:24:49;;;;;;;;;;;;;;;;;;;;;
2021/06/05 07:27:19;;;;;;;16.02;12.35;;;19.10;99.90;;;;;;5045369;28;20028;-90
2021/06/05 07:29:48;;;;;;;15.80;13.35;;;19.10;99.90;;;;;;5056244;28;20032;-90
2021/06/05 07:32:52;;;;;;;;;;;;;;;;;;;;;
2021/06/05 07:35:31;;;;;;;20.55;15.30;;;19.30;99.90;;;;;;5031559;28;20026;-90
2021/06/05 07:37:57;;;;;;;18.58;13.95;;;19.40;99.90;;;;;;5067571;28;20028;-90
2021/06/05 07:40:35;;;;;;;16.92;13.70;;;19.30;99.90;;;;;;5055895;28;20067;-90
2021/06/05 07:43:39;;;;;;;18.15;14.25;;;19.30;99.90;;;;;;5063421;28;20027;-89
2021/06/05 07:46:17;;;;;;;18.20;12.52;;;19.20;99.90;;;;;;5046835;28;20037;-90
2021/06/05 07:48:43;;;;;;;17.52;13.27;;;19.20;99.90;;;;;;5046533;28;20168;-89
2021/06/05 07:51:19;;;;;;;;;;;;;;;;;;;;;
2021/06/05 07:54:04;;;;;;;16.40;12.40;;;19.10;99.90;;;;;;5074213;28;20024;-89
2021/06/05 07:56:36;;;;;;;16.42;11.52;;;19.20;99.90;;;;;;5074130;28;20082;-89
2021/06/05 07:59:07;;;;;;;15.45;11.38;;;19.20;99.90;;;;;;5055143;28;20116;-88
2021/06/05 08:01:35;;;;;;;16.38;12.60;;;19.20;99.90;;;;;;5039415;28;20045;-89
2021/06/05 08:04:01;;;;;;;17.08;13.75;;;19.20;99.90;;;;;;5055882;28;20054;-88
2021/06/05 08:06:27;;;;;;;17.67;12.23;;;19.20;99.90;;;;;;5055061;28;20568;-88
2021/06/05 08:09:10;;;;;;;13.32;11.00;;;19.10;99.90;;;;;;5055613;28;20086;-89
2021/06/05 08:11:43;;;;;;;;;;;19.10;99.90;;;;;;5074304;28;20035;-88
2021/06/05 08:14:09;;;;;;;13.68;11.02;;;19.10;99.90;;;;;;5055983;28;19979;-89
2021/06/05 08:16:39;;;;;;;12.30;10.40;;;19.20;99.90;;;;;;5054899;28;20024;-88
2021/06/05 08:19:12;;;;;;;11.13;9.38;;;19.20;99.90;;;;;;5055273;28;20027;-89
2021/06/05 08:22:01;;;;;;;12.85;11.35;;;19.20;99.90;;;;;;5051676;28;20045;-88
2021/06/05 08:24:29;;;;;;;13.45;10.90;;;19.20;99.90;;;;;;5048372;28;20037;-88
2021/06/05 08:26:58;;;;;;;13.05;11.48;;;19.20;99.90;;;;;;5036658;28;20025;-88
2021/06/05 08:32:34;;;;;;;12.52;11.13;;;19.10;99.90;;;;;;5029690;28;20036;-87
2021/06/05 08:35:15;;;;;;;12.70;10.50;;;19.10;99.90;;;;;;5053031;28;20070;-88
2021/06/05 08:37:47;;;;;;;13.68;10.35;;;19.10;99.90;;;;;;5052486;28;20064;-89
2021/06/05 08:40:17;;;;;;;12.88;10.18;;;19.10;99.90;;;;;;5050366;28;20029;-88
2021/06/05 08:42:51;;;;;;;11.93;9.65;;;19.10;99.90;;;;;;5052523;28;20036;-87
2021/06/05 08:45:28;;;;;;;11.82;9.30;;;19.20;99.90;;;;;;5051649;28;20113;-88
2021/06/05 08:47:54;;;;;;;11.45;9.07;;;19.20;99.90;;;;;;5047830;28;20174;-88
2021/06/05 08:50:29;;;;;;;9.98;8.23;;;19.30;99.90;;;;;;5055413;28;20040;-87
2021/06/05 08:53:28;;;;;;;9.77;7.88;;;19.50;99.90;;;;;;5040186;28;20496;-87
2021/06/05 08:56:02;;;;;;;8.93;7.43;;;19.50;99.90;;;;;;5023100;28;20025;-88
2021/06/05 08:59:01;;;;;;;;;;;19.60;99.90;;;;;;5054150;28;20037;-87
2021/06/05 09:04:38;;;;;;;9.73;7.50;;;19.50;99.90;;;;;;5026585;28;20028;-87
2021/06/05 09:07:27;;;;;;;10.45;7.95;;;19.50;99.90;;;;;;5053920;28;20029;-88
2021/06/05 09:10:01;;;;;;;9.95;8.15;;;19.40;99.90;;;;;;5025909;28;20077;-88
2021/06/05 09:12:27;;;;;;;10.80;8.95;;;19.40;99.90;;;;;;5055027;28;20033;-87
2021/06/05 09:14:58;;;;;;;10.02;7.93;;;19.40;99.90;;;;;;5055331;28;20033;-88
2021/06/05 09:17:45;;;;;;;9.05;7.88;;;19.30;99.90;;;;;;5043910;28;20021;-88
2021/06/05 09:20:34;;;;;;;7.93;7.13;;;19.40;99.90;;;;;;5070092;28;20071;-88
2021/06/05 09:23:01;;;;;;;7.93;6.93;;;19.50;99.90;;;;;;5030463;28;20115;-88
2021/06/05 09:25:36;;;;;;;9.50;6.80;;;19.60;99.90;;;;;;5047487;28;20071;-88
2021/06/05 09:28:16;;;;;;;10.15;8.20;;;19.70;99.90;;;;;;5051809;28;20021;-88
2021/06/05 09:30:43;;;;;;;9.43;8.43;;;19.70;99.90;;;;;;5077517;28;20108;-88
2021/06/05 09:33:14;;;;;;;9.40;7.22;;;19.60;99.90;;;;;;5066525;28;20055;-87
2021/06/05 09:35:49;;;;;;;8.70;7.80;;;19.60;99.90;;;;;;5046142;28;20055;-86
2021/06/05 09:38:30;;;;;;;9.57;7.93;;;19.60;99.90;;;;;;5052399;28;20037;-88
2021/06/05 09:41:25;;;;;;;9.30;7.97;;;19.60;99.90;;;;;;5006936;28;20032;-87
2021/06/05 09:44:19;;;;;;;9.52;8.48;;;19.70;99.90;;;;;;5056957;28;20025;-87
2021/06/05 09:47:04;;;;;;;10.07;8.80;;;19.80;99.90;;;;;;5039315;28;20032;-87
2021/06/05 09:49:50;;;;;;;10.68;8.23;;;20.00;99.90;;;;;;5047494;28;20056;-87
2021/06/05 09:52:27;;;;;;;10.73;8.68;;;20.20;99.90;;;;;;5048801;28;20057;-86
2021/06/05 09:54:57;;;;;;;9.55;8.23;;;20.40;99.90;;;;;;5023146;28;20017;-86
2021/06/05 09:57:37;;;;;;;9.50;8.45;;;20.50;99.90;;;;;;5047519;28;20065;-88
2021/06/05 10:00:29;;;;;;;9.98;8.05;;;20.80;99.90;;;;;;5047569;28;20512;-88
2021/06/05 10:03:34;;;;;;;9.48;8.48;;;21.00;99.90;;;;;;5023408;28;20473;-87
2021/06/05 10:06:32;;;;;;;8.95;8.00;;;21.10;99.90;;;;;;5041043;28;20040;-86
2021/06/05 10:09:32;;;;;;;9.35;8.43;;;21.10;99.90;;;;;;5029466;28;20035;-87
2021/06/05 10:12:04;;;;;;;9.15;8.25;;;21.00;99.90;;;;;;5042584;28;20045;-87
2021/06/05 10:15:00;;;;;;;9.32;8.30;;;20.80;99.90;;;;;;5051753;28;20029;-86
2021/06/05 10:17:47;;;;;;;7.32;6.45;;;20.70;99.90;;;;;;5017247;28;20033;-87
2021/06/05 10:20:52;;;;;;;;;;;;;;;;;;;;;
2021/06/05 10:23:47;;;;;;;8.70;7.80;;;20.60;99.90;;;;;;5055521;28;20035;-89
2021/06/05 10:26:24;;;;;;;8.25;7.35;;;20.60;99.90;;;;;;5052964;28;20036;-89
2021/06/05 10:29:02;;;;;;;8.88;7.75;;;20.70;99.90;;;;;;5056674;28;20032;-87
2021/06/05 10:31:33;;;;;;;9.10;8.07;;;20.80;99.90;;;;;;5070294;28;20365;-88
2021/06/05 10:34:42;;;;;;;8.18;7.18;;;20.80;99.90;;;;;;5074904;28;20025;-88
2021/06/05 10:37:18;;;;;;;8.57;6.97;;;20.90;99.90;;;;;;5024894;28;20037;-87
2021/06/05 10:39:57;;;;;;;7.45;6.55;;;21.00;99.90;;;;;;5056779;28;20380;-89
2021/06/05 10:42:32;;;;;;;7.43;6.63;;;21.00;99.90;;;;;;5059260;28;20028;-89
2021/06/05 10:45:02;;;;;;;8.65;7.45;;;21.00;99.90;;;;;;5057101;28;20060;-88
2021/06/05 10:47:58;;;;;;;7.45;6.32;;;20.80;99.90;;;;;;5057028;28;20032;-88
2021/06/05 10:50:31;;;;;;;10.45;8.10;;;20.80;99.90;;;;;;5048784;28;20094;-88
2021/06/05 10:53:27;;;;;;;8.10;7.30;;;20.60;99.90;;;;;;5041214;28;20021;-88
2021/06/05 10:56:29;;;;;;;10.20;8.93;;;20.50;99.90;;;;;;5056744;28;20029;-88
2021/06/05 10:59:42;;;;;;;11.25;9.48;;;20.50;99.90;;;;;;5056745;28;20025;-88
2021/06/05 11:02:32;;;;;;;9.85;8.23;;;20.30;99.90;;;;;;5021024;28;20452;-88
2021/06/05 11:05:41;;;;;;;9.32;8.32;;;20.30;99.90;;;;;;5056948;28;20051;-89
2021/06/05 11:08:16;;;;;;;10.50;8.70;;;20.30;99.90;;;;;;5073822;28;20048;-88
2021/06/05 11:11:06;;;;;;;9.18;7.75;;;20.40;99.90;;;;;;5055956;28;20511;-89
2021/06/05 11:13:35;;;;;;;8.48;7.10;;;20.50;99.90;;;;;;5057014;28;20086;-89
2021/06/05 11:17:00;;;;;;;9.52;7.97;;;20.70;99.90;;;;;;5075516;28;20024;-89
2021/06/05 11:19:51;;;;;;;8.98;7.57;;;20.70;99.90;;;;;;5059419;28;20017;-88
2021/06/05 11:22:45;;;;;;;9.05;7.55;;;20.80;99.90;;;;;;5077520;28;20068;-89
2021/06/05 11:25:55;;;;;;;9.43;6.82;;;20.80;99.90;;;;;;5087014;28;20069;-88
2021/06/05 11:32:06;;;;;;;8.18;7.18;;;21.00;99.90;;;;;;4992774;28;20068;-88
2021/06/05 11:34:53;;;;;;;8.93;7.20;;;21.20;99.90;;;;;;5045674;28;20028;-88
2021/06/05 11:37:25;;;;;;;8.55;7.32;;;21.30;99.90;;;;;;5074512;28;20025;-88
2021/06/05 11:40:51;;;;;;;;;;;;;;;;;;;;;
2021/06/05 11:43:33;;;;;;;8.88;7.82;;;21.50;99.90;;;;;;5054758;28;20035;-88
2021/06/05 11:46:08;;;;;;;7.68;6.88;;;21.30;99.90;;;;;;5071574;28;20460;-89
2021/06/05 11:49:04;;;;;;;8.15;7.35;;;21.10;99.90;;;;;;5065251;28;20074;-88
2021/06/05 11:51:42;;;;;;;10.32;6.60;;;20.90;99.90;;;;;;5065000;28;20048;-88
2021/06/05 11:54:21;;;;;;;8.85;7.72;;;20.80;99.90;;;;;;5063544;28;20115;-87
2021/06/05 11:57:09;;;;;;;8.23;7.32;;;20.70;99.90;;;;;;5051581;28;20043;-91
2021/06/05 12:00:13;;;;;;;9.40;7.93;;;20.60;99.90;;;;;;5054774;28;20051;-91
2021/06/05 12:02:46;;;;;;;10.27;8.02;;;20.50;99.90;;;;;;5043474;28;20067;-89
2021/06/05 12:05:38;;;;;;;;;;;20.30;99.90;;;;;;5069740;28;20056;-91
2021/06/05 12:08:35;;;;;;;8.65;6.50;;;20.20;99.90;;;;;;5045107;28;20229;-90
2021/06/05 12:11:21;;;;;;;8.43;7.00;;;20.30;99.90;;;;;;5046858;28;20036;-89
2021/06/05 12:14:12;;;;;;;;;;;;;;;;;;;;;
2021/06/05 12:16:49;;;;;;;8.57;6.85;;;20.50;99.90;;;;;;5069259;28;20028;-88
2021/06/05 12:19:53;;;;;;;7.25;6.53;;;20.50;99.90;;;;;;5050861;28;20537;-90
2021/06/05 12:22:40;;;;;;;7.13;6.43;;;20.60;99.90;;;;;;5007073;28;20037;-89
2021/06/05 12:25:53;;;;;;;;;;;;;;;;;;;;;
2021/06/05 12:28:46;;;;;;;8.27;7.22;;;20.70;99.90;;;;;;4953889;28;20023;-88
2021/06/05 12:31:42;;;;;;;8.52;7.63;;;20.80;99.90;;;;;;5020096;28;20042;-89
2021/06/05 12:37:44;;;;;;;;;;;;;;;;;;;;;
2021/06/05 12:41:03;;;;;;;8.70;7.47;;;20.60;99.90;;;;;;5027655;28;20029;-89
2021/06/05 12:43:44;;;;;;;10.18;6.75;;;20.50;99.90;;;;;;5028921;28;20130;-87
2021/06/05 12:46:25;;;;;;;9.48;8.57;;;20.50;99.90;;;;;;5010439;28;20381;-88
2021/06/05 12:49:08;;;;;;;10.07;8.13;;;20.50;99.90;;;;;;5015275;28;20052;-89
2021/06/05 12:51:54;;;;;;;10.48;9.48;;;20.50;99.90;;;;;;5015507;28;20089;-87
2021/06/05 12:54:42;;;;;;;8.15;7.05;;;20.60;99.90;;;;;;5029760;28;20041;-88
2021/06/05 12:57:56;;;;;;;9.70;8.52;;;20.70;99.90;;;;;;5031927;28;20032;-89
2021/06/05 13:01:09;;;;;;;8.30;7.25;;;20.80;99.90;;;;;;4999792;28;20026;-90
2021/06/05 13:03:47;;;;;;;8.82;7.88;;;20.90;99.90;;;;;;5027179;28;20118;-89
2021/06/05 13:06:28;;;;;;;9.15;8.23;;;20.80;99.90;;;;;;5032713;28;20034;-87
2021/06/05 13:09:25;;;;;;;;;;;;;;;;;;;;;
2021/06/05 13:12:03;;;;;;;11.52;10.32;;;20.80;99.90;;;;;;5033406;28;20037;-88
2021/06/05 13:14:33;;;;;;;10.63;9.60;;;20.70;99.90;;;;;;5032877;28;20034;-88
2021/06/05 13:17:13;;;;;;;13.00;10.60;;;20.60;99.90;;;;;;5033221;28;20052;-89
2021/06/05 13:19:40;;;;;;;11.10;10.00;;;20.60;99.90;;;;;;5034553;28;20100;-88
2021/06/05 13:22:23;;;;;;;11.07;9.65;;;20.60;99.90;;;;;;5055810;28;20080;-87
2021/06/05 13:25:11;;;;;;;10.65;9.52;;;20.60;99.90;;;;;;5058865;28;20029;-89
2021/06/05 13:31:32;;;;;;;;;;;;;;;;;;;;;
2021/06/05 13:34:49;;;;;;;;;;;;;;;;;;;;;
2021/06/05 13:37:18;;;;;;;20.85;18.75;;;20.80;99.90;;;;;;5065290;28;20024;-88
2021/06/05 13:40:14;;;;;;;20.17;18.17;;;20.90;99.90;;;;;;5053717;28;20024;-89
2021/06/05 13:42:57;;;;;;;18.23;16.48;;;21.10;99.90;;;;;;5058425;28;20119;-90
2021/06/05 13:45:42;;;;;;;23.13;20.85;;;21.20;99.90;;;;;;5058348;28;20028;-87
2021/06/05 13:48:25;;;;;;;23.10;20.70;;;21.20;99.90;;;;;;5058508;28;20032;-88
2021/06/05 13:51:14;;;;;;;23.85;21.27;;;21.20;99.90;;;;;;5041775;28;20345;-89
2021/06/05 13:53:42;;;;;;;23.63;19.65;;;21.10;99.90;;;;;;5057915;28;20036;-88
2021/06/05 13:56:14;;;;;;;25.38;20.98;;;21.00;99.90;;;;;;5057899;28;20362;-88
2021/06/05 13:58:43;;;;;;;29.40;23.98;;;21.10;99.90;;;;;;5057694;28;20115;-88
2021/06/05 14:01:38;;;;;;;;;;;;;;;;;;;;;
2021/06/05 14:04:12;;;;;;;28.17;22.65;;;21.40;99.90;;;;;;5075966;28;20021;-89
2021/06/05 14:06:37;;;;;;;35.72;27.52;;;21.60;99.90;;;;;;5057898;28;20071;-88
2021/06/05 14:09:04;;;;;;;34.97;27.42;;;21.60;99.90;;;;;;5075863;28;20029;-84
2021/06/05 14:11:34;;;;;;;37.83;29.15;;;21.60;99.90;;;;;;5075425;28;20480;-87
2021/06/05 14:14:00;;;;;;;37.60;29.27;;;21.70;99.90;;;;;;5057856;28;20070;-88
2021/06/05 14:16:41;;;;;;;;;;;;;;;;;;;;;
2021/06/05 14:19:10;;;;;;;31.05;23.88;;;21.80;99.90;;;;;;5074611;28;20067;-87
2021/06/05 14:21:46;;;;;;;30.95;23.58;;;21.90;99.90;;;;;;5073749;28;20098;-87
2021/06/05 14:24:24;;;;;;;;;;;;;;;;;;;;;
2021/06/05 14:27:15;;;;;;;28.40;22.52;;;21.80;99.90;;;;;;5059007;28;20008;-87
2021/06/05 14:29:47;;;;;;;25.65;21.23;;;21.60;99.90;;;;;;5057345;28;20044;-87
2021/06/05 14:32:33;;;;;;;26.00;21.02;;;21.20;99.90;;;;;;5075430;28;20037;-87
2021/06/05 14:34:58;;;;;;;22.58;18.27;;;21.10;99.90;;;;;;5036155;28;20098;-87
2021/06/05 14:37:28;;;;;;;20.10;17.17;;;21.00;99.90;;;;;;5073759;28;20028;-87
2021/06/05 14:40:28;;;;;;;18.65;15.50;;;21.00;99.90;;;;;;5075272;28;20562;-88
2021/06/05 14:43:37;;;;;;;20.10;15.45;;;21.10;99.90;;;;;;5016466;28;20026;-88
2021/06/05 14:46:35;;;;;;;19.55;15.30;;;21.10;99.90;;;;;;5084140;28;20048;-87
2021/06/05 14:49:00;;;;;;;21.90;17.80;;;21.10;99.90;;;;;;5072067;28;20043;-87
2021/06/05 14:52:11;;;;;;;20.17;15.80;;;21.00;99.90;;;;;;5088315;28;20086;-88
2021/06/05 14:54:39;;;;;;;20.58;16.40;;;20.90;99.90;;;;;;5066838;28;20032;-88
2021/06/05 14:57:10;;;;;;;21.17;16.88;;;20.80;99.90;;;;;;5057129;28;20031;-87
2021/06/05 14:59:42;;;;;;;20.85;16.13;;;20.80;99.90;;;;;;5057050;28;20058;-88
2021/06/05 15:04:57;;;;;;;18.05;15.23;;;20.70;99.90;;;;;;5060981;28;20028;-88
2021/06/05 15:07:33;;;;;;;21.00;17.48;;;20.70;99.90;;;;;;5057207;28;20078;-87
2021/06/05 15:10:01;;;;;;;24.92;17.88;;;20.60;99.90;;;;;;5057072;28;20126;-88
2021/06/05 15:12:28;;;;;;;21.65;17.90;;;20.60;99.90;;;;;;5074811;28;20051;-88
2021/06/05 15:14:53;;;;;;;24.55;19.33;;;20.50;99.90;;;;;;5057050;28;20052;-87
2021/06/05 15:17:24;;;;;;;27.38;19.65;;;20.50;99.90;;;;;;5074676;28;20029;-88
2021/06/05 15:19:50;;;;;;;24.23;20.65;;;20.40;99.90;;;;;;5056645;28;20036;-89
2021/06/05 15:22:23;;;;;;;26.38;21.58;;;20.40;99.90;;;;;;5058746;28;20123;-89
2021/06/05 15:25:01;;;;;;;22.08;17.90;;;20.30;99.90;;;;;;5070739;28;20492;-87
2021/06/05 15:27:31;;;;;;;31.17;23.52;;;20.30;99.90;;;;;;5080349;28;20415;-88
2021/06/05 15:29:57;;;;;;;28.83;23.77;;;20.20;99.90;;;;;;5056618;28;20060;-88
2021/06/05 15:32:23;;;;;;;27.52;22.20;;;20.10;99.90;;;;;;5039351;28;20534;-88
2021/06/05 15:34:50;;;;;;;27.70;22.92;;;20.10;99.90;;;;;;5055916;28;20384;-87
2021/06/05 15:37:17;;;;;;;32.55;26.50;;;20.00;99.90;;;;;;5073598;28;20029;-88
2021/06/05 15:39:46;;;;;;;34.97;27.08;;;20.00;99.90;;;;;;5065189;28;20139;-88
2021/06/05 15:42:17;;;;;;;32.22;25.27;;;19.90;99.90;;;;;;5073977;28;20020;-88
2021/06/05 15:44:53;;;;;;;;;;;;;;;;;;;;;
2021/06/05 15:47:23;;;;;;;27.13;23.92;;;19.90;99.90;;;;;;5068890;28;20036;-89
2021/06/05 15:50:00;;;;;;;29.77;24.33;;;19.80;99.90;;;;;;5073835;28;20086;-88
2021/06/05 15:58:35;;;;;;;31.17;25.17;;;19.70;99.90;;;;;;5059566;28;20025;-88
2021/06/05 16:01:05;;;;;;;31.38;25.45;;;19.60;99.90;;;;;;5055499;28;20477;-86
2021/06/05 16:03:42;;;;;;;28.00;23.63;;;19.60;99.90;;;;;;5055980;28;20487;-87
2021/06/05 16:06:08;;;;;;;27.17;23.75;;;19.60;99.90;;;;;;5074060;28;20364;-86
2021/06/05 16:08:41;;;;;;;26.98;23.08;;;19.60;99.90;;;;;;5073775;28;20032;-86
2021/06/05 16:11:09;;;;;;;33.33;27.70;;;19.60;99.90;;;;;;5055265;28;20440;-82
2021/06/05 16:13:34;;;;;;;30.85;25.65;;;19.60;99.90;;;;;;5055309;28;20024;-82
2021/06/05 16:16:18;;;;;;;32.90;28.10;;;19.60;99.90;;;;;;5073461;28;20029;-81
2021/06/05 16:18:44;;;;;;;32.97;27.58;;;19.50;99.90;;;;;;5055586;28;20123;-83
2021/06/05 16:21:33;;;;;;;32.13;27.80;;;19.50;99.90;;;;;;5055352;28;20050;-82
2021/06/05 16:23:59;;;;;;;30.67;26.38;;;19.50;99.90;;;;;;5055054;28;20511;-83
2021/06/05 16:26:29;;;;;;;31.60;26.25;;;19.50;99.90;;;;;;5072261;28;20107;-82
2021/06/05 16:28:56;;;;;;;30.17;24.65;;;19.50;99.90;;;;;;5040963;28;20053;-83
2021/06/05 16:31:33;;;;;;;26.63;23.73;;;19.50;99.90;;;;;;5070107;28;20037;-83
2021/06/05 16:34:22;;;;;;;33.78;28.65;;;19.50;99.90;;;;;;5060341;28;20071;-84
2021/06/05 16:36:52;;;;;;;32.17;26.27;;;19.50;99.90;;;;;;5071015;28;20024;-84
2021/06/05 16:39:19;;;;;;;31.58;26.08;;;19.40;99.90;;;;;;5071543;28;20037;-84
2021/06/05 16:41:46;;;;;;;31.83;25.27;;;19.40;99.90;;;;;;5050548;28;20052;-84
2021/06/05 16:44:12;;;;;;;27.80;22.65;;;19.40;99.90;;;;;;5050395;28;20098;-84
2021/06/05 16:46:41;;;;;;;25.42;20.80;;;19.40;99.90;;;;;;5051174;28;20452;-83
2021/06/05 16:49:07;;;;;;;30.33;23.73;;;19.30;99.90;;;;;;5054657;28;20029;-83
2021/06/05 16:51:33;;;;;;;32.47;25.08;;;19.30;99.90;;;;;;5049734;28;20040;-84
2021/06/05 16:54:05;;;;;;;35.67;27.73;;;19.20;99.90;;;;;;5068380;28;20050;-84
2021/06/05 16:56:31;;;;;;;38.38;29.27;;;19.20;99.90;;;;;;5050501;28;20027;-84
2021/06/05 16:58:59;;;;;;;35.75;27.83;;;19.10;99.90;;;;;;5050103;28;20491;-84
2021/06/05 17:01:34;;;;;;;35.70;27.77;;;19.10;99.90;;;;;;5050197;28;20037;-84
2021/06/05 17:04:04;;;;;;;35.45;27.52;;;19.20;99.90;;;;;;5050585;28;20115;-84
2021/06/05 17:06:36;;;;;;;35.83;25.42;;;19.20;99.90;;;;;;5050184;28;20043;-84
2021/06/05 17:09:08;;;;;;;37.10;26.48;;;19.20;99.90;;;;;;5053696;28;20036;-83
2021/06/05 17:11:34;;;;;;;34.37;26.20;;;19.20;99.90;;;;;;5071744;28;20036;-84
2021/06/05 17:14:00;;;;;;;35.72;26.13;;;19.20;99.90;;;;;;5054253;28;20446;-84
2021/06/05 17:16:27;;;;;;;36.65;26.75;;;19.20;99.90;;;;;;5054025;28;20115;-84
2021/06/05 17:18:53;;;;;;;38.83;26.48;;;19.20;99.90;;;;;;5054139;28;20028;-84
2021/06/05 17:21:18;;;;;;;35.17;26.92;;;19.20;99.90;;;;;;5054554;28;20059;-84
2021/06/05 17:23:45;;;;;;;36.67;25.77;;;19.10;99.90;;;;;;5055900;28;20039;-83
2021/06/05 17:26:42;;;;;;;37.33;27.38;;;19.00;99.90;;;;;;5055085;28;20025;-84
2021/06/05 17:29:09;;;;;;;41.63;27.17;;;18.90;99.90;;;;;;5064475;28;20055;-84
2021/06/05 17:31:40;;;;;;;37.08;27.42;;;18.90;99.90;;;;;;5060543;28;20032;-84
2021/06/05 17:34:08;;;;;;;42.72;28.77;;;18.80;99.90;;;;;;5066243;28;20039;-84
2021/06/05 17:36:35;;;;;;;37.00;24.85;;;18.80;99.90;;;;;;5053614;28;20033;-84
2021/06/05 17:39:03;;;;;;;36.50;24.27;;;18.70;99.90;;;;;;5053383;28;20063;-84
2021/06/05 17:41:30;;;;;;;33.78;23.92;;;18.70;99.90;;;;;;5070892;28;20060;-84
2021/06/05 17:44:11;;;;;;;35.70;24.70;;;18.70;99.90;;;;;;5053286;28;20070;-85
2021/06/05 17:46:38;;;;;;;36.65;24.70;;;18.60;99.90;;;;;;5053319;28;20021;-84
2021/06/05 17:49:07;;;;;;;37.72;24.92;;;18.60;99.90;;;;;;5052555;28;20029;-84